MiSS Edmay — WDC3055 — position and weather

sailwx.info

Track history (hours):
 
Tides and Currents Weather Stations Pressure Air Temp Water Temp Dewpoint Dewpoint Depression Visibility Wind Speed Wind Dir Waves Ship Positions

MiSS Edmay

Owner: CENTRAL BOAT RENTALS, BERWICK, LA. More information available from US FCC via Universal Licensing System and Coast Guard Vessel Documentation Center.

Last reported at 2018-Feb-21 00:14 UTC. Time now 2018-Feb-21 19:10 UTC.
Position N 29°42' W 095°03'.

Length 22 m; draft 3 m.

Type: Tug. MMSI: 367002070.

Date/timePositionNaut miles runAvg speedWind from/ knotsBaromVisibWave heightAir tempDewpointWater temp
2018-Feb-21 00:14N 29°42' W 095°03'0 0.5
2018-Feb-20 23:42N 29°42' W 095°03'0 0.5
2018-Feb-20 23:08N 29°42' W 095°03'1 5.9
2018-Feb-20 22:54N 29°42' W 095°01'3 7.0
2018-Feb-20 22:30N 29°41' W 094°58'3 5.3
2018-Feb-20 22:00N 29°41' W 094°55'2 3.6
2018-Feb-20 21:29N 29°43' W 094°56'2 0.8
2018-Feb-20 19:39N 29°44' W 094°55'1 4.1
2018-Feb-20 19:26N 29°44' W 094°56'2 3.6
2018-Feb-20 18:59N 29°42' W 094°56'2 3.3
2018-Feb-20 18:30N 29°41' W 094°56'3 5.5
2018-Feb-20 18:00N 29°41' W 094°59'4 6.8
2018-Feb-20 17:29N 29°42' W 095°03'0 0.0
2018-Feb-20 14:01N 29°42' W 095°03'0 0.0
2018-Feb-20 13:55N 29°42' W 095°03'0 0.0
2018-Feb-20 07:52N 29°42' W 095°03'0 0.0
2018-Feb-20 06:04N 29°42' W 095°03'0 0.0
2018-Feb-20 05:49N 29°42' W 095°03'0 0.0
2018-Feb-20 00:04N 29°42' W 095°03'0 0.0
2018-Feb-19 23:55N 29°42' W 095°03'0 0.0
2018-Feb-19 14:00N 29°42' W 095°03'0 0.0
2018-Feb-19 13:27N 29°42' W 095°03'0 0.0
2018-Feb-19 08:24N 29°42' W 095°03'0 0.0
2018-Feb-19 08:00N 29°42' W 095°03'0 0.0
2018-Feb-19 07:30N 29°42' W 095°03'0 0.0
2018-Feb-19 06:06N 29°42' W 095°03'0 0.0
2018-Feb-19 05:54N 29°42' W 095°03'0 0.0
2018-Feb-17 19:45N 29°43' W 095°03'1 3.8
2018-Feb-17 19:30N 29°42' W 095°02'2 4.6
2018-Feb-17 19:00N 29°41' W 094°59'3 5.5
2018-Feb-17 18:30N 29°39' W 094°58'3 6.2
2018-Feb-17 18:00N 29°36' W 094°57'3 6.2
2018-Feb-17 17:30N 29°33' W 094°55'26 1.1
2018-Feb-16 17:01N 29°34' W 094°25'0 6.3
2018-Feb-16 17:00N 29°34' W 094°25'2 4.5
2018-Feb-16 16:29N 29°36' W 094°23'3 6.1
2018-Feb-16 15:58N 29°37' W 094°20'3 5.6
2018-Feb-16 15:30N 29°39' W 094°17'3 6.0
2018-Feb-16 14:58N 29°40' W 094°14'2 3.5
2018-Feb-16 14:30N 29°41' W 094°12'1 2.6
2018-Feb-16 14:00N 29°41' W 094°11'2 5.0
2018-Feb-16 13:30N 29°42' W 094°08'3 5.2
2018-Feb-16 13:00N 29°44' W 094°06'2 5.0
2018-Feb-16 12:30N 29°45' W 094°04'1 1.1
2018-Feb-16 11:58N 29°46' W 094°03'0 0.0
2018-Feb-16 11:28N 29°46' W 094°03'0 0.0
2018-Feb-16 10:58N 29°46' W 094°03'0 0.0
2018-Feb-16 10:28N 29°46' W 094°03'0 0.0
2018-Feb-16 09:58N 29°46' W 094°03'0 0.0
2018-Feb-16 09:28N 29°46' W 094°03'0 0.0
2018-Feb-16 08:58N 29°46' W 094°03'0 0.0
2018-Feb-16 08:28N 29°46' W 094°03'0 0.0
2018-Feb-16 07:55N 29°46' W 094°03'0 0.0
2018-Feb-16 07:28N 29°46' W 094°03'0 0.0
2018-Feb-16 06:58N 29°46' W 094°03'0 0.0
2018-Feb-16 06:28N 29°46' W 094°03'0 0.0
2018-Feb-16 05:58N 29°46' W 094°03'0 0.0
2018-Feb-16 05:28N 29°46' W 094°03'0 0.0
2018-Feb-16 04:58N 29°46' W 094°03'0 0.0
2018-Feb-16 04:28N 29°46' W 094°03'0 0.0
2018-Feb-16 03:58N 29°46' W 094°03'0 0.0
2018-Feb-16 03:28N 29°46' W 094°03'0 0.0
2018-Feb-16 02:58N 29°46' W 094°03'0 0.0
2018-Feb-16 02:28N 29°46' W 094°03'0 0.0
2018-Feb-16 01:46N 29°46' W 094°03'0 0.0
2018-Feb-16 01:28N 29°46' W 094°03'0 0.0
2018-Feb-16 00:58N 29°46' W 094°03'1 1.8
2018-Feb-16 00:30N 29°46' W 094°02'3 6.5
2018-Feb-16 00:01N 29°49' W 093°60'3 5.5
2018-Feb-15 23:31N 29°50' W 093°57'3 5.2
2018-Feb-15 23:00N 29°53' W 093°56'3 6.0
2018-Feb-15 22:30N 29°55' W 093°53'3 6.2
2018-Feb-15 22:00N 29°57' W 093°52'3 5.8
2018-Feb-15 21:30N 29°59' W 093°49'3 6.7
2018-Feb-15 21:00N 30°01' W 093°45'3 6.2
2018-Feb-15 20:30N 30°03' W 093°43'4 6.1
2018-Feb-15 19:54N 30°04' W 093°39'2 6.1
2018-Feb-15 19:29N 30°04' W 093°36'3 5.4
2018-Feb-15 19:00N 30°04' W 093°33'3 5.5
2018-Feb-15 18:30N 30°04' W 093°30'3 5.3
2018-Feb-15 18:00N 30°04' W 093°27'2 4.0
2018-Feb-15 17:31N 30°04' W 093°25'2 4.5
2018-Feb-15 17:01N 30°04' W 093°22'2 3.8
2018-Feb-15 16:31N 30°05' W 093°20'2 4.0
2018-Feb-15 16:00N 30°06' W 093°18'0 0.3
2018-Feb-15 15:30N 30°06' W 093°18'0 0.0
2018-Feb-15 15:00N 30°06' W 093°18'0 0.0
2018-Feb-15 14:30N 30°06' W 093°18'0 0.0
2018-Feb-15 14:00N 30°06' W 093°18'0 0.0
2018-Feb-15 13:30N 30°06' W 093°18'0 0.0
2018-Feb-15 13:00N 30°06' W 093°18'0 0.0
2018-Feb-15 12:30N 30°06' W 093°18'0 0.0
2018-Feb-15 12:00N 30°06' W 093°18'0 0.0
2018-Feb-15 11:30N 30°06' W 093°18'0 0.0
2018-Feb-15 11:00N 30°06' W 093°18'0 0.0
2018-Feb-15 10:30N 30°06' W 093°18'0 0.0
2018-Feb-15 10:00N 30°06' W 093°18'0 0.0
2018-Feb-15 09:30N 30°06' W 093°18'0 0.0
2018-Feb-15 09:00N 30°06' W 093°18'0 0.0
2018-Feb-15 08:30N 30°06' W 093°18'0 0.0
2018-Feb-15 08:00N 30°06' W 093°18'0 0.0
2018-Feb-15 07:30N 30°06' W 093°18'0 0.0
2018-Feb-15 07:00N 30°06' W 093°18'0 0.0
2018-Feb-15 06:21N 30°06' W 093°18'0 0.0
2018-Feb-15 06:00N 30°06' W 093°18'0 0.0
2018-Feb-15 05:30N 30°06' W 093°18'0 0.0
2018-Feb-15 05:00N 30°06' W 093°18'0 0.0
2018-Feb-15 04:30N 30°06' W 093°18'0 0.0
2018-Feb-15 04:00N 30°06' W 093°18'0 0.0
2018-Feb-15 03:30N 30°06' W 093°18'0 0.0
2018-Feb-15 02:57N 30°06' W 093°18'0 0.0
2018-Feb-15 02:18N 30°06' W 093°18'0 0.0
2018-Feb-15 02:00N 30°06' W 093°18'0 0.0
2018-Feb-15 01:30N 30°06' W 093°18'1 1.6
2018-Feb-15 01:00N 30°05' W 093°18'1 1.7
2018-Feb-15 00:30N 30°05' W 093°17'0 0.1
2018-Feb-15 00:00N 30°05' W 093°17'0 0.0
2018-Feb-14 23:27N 30°05' W 093°17'0 0.0
2018-Feb-14 23:00N 30°05' W 093°17'0 0.8
2018-Feb-14 22:31N 30°04' W 093°16'2 4.6
2018-Feb-14 22:01N 30°02' W 093°15'2 5.0
2018-Feb-14 21:30N 30°00' W 093°14'2 4.2
2018-Feb-14 21:01N 29°59' W 093°12'3 6.1
2018-Feb-14 20:30N 29°56' W 093°10'11 5.7
2018-Feb-14 18:39N 29°56' W 092°58'32 2.8
2018-Feb-14 07:13N 29°51' W 092°22'2 5.1
2018-Feb-14 06:49N 29°50' W 092°19'1 3.3
2018-Feb-14 06:30N 29°50' W 092°18'2 3.1
2018-Feb-14 06:01N 29°49' W 092°17'3 5.4
2018-Feb-14 05:30N 29°48' W 092°14'2 3.6
2018-Feb-14 04:59N 29°47' W 092°12'2 3.8
2018-Feb-14 04:30N 29°47' W 092°10'  
Track history (hours):
 
Tides and Currents Weather Stations Pressure Air Temp Water Temp Dewpoint Dewpoint Depression Visibility Wind Speed Wind Dir Waves Ship Positions

MiSS Edmay

Owner: CENTRAL BOAT RENTALS, BERWICK, LA. More information available from US FCC via Universal Licensing System and Coast Guard Vessel Documentation Center.

Last reported at 2018-Feb-21 00:14 UTC. Time now 2018-Feb-21 19:10 UTC.
Position N 29°42' W 095°03'.

Length 22 m; draft 3 m.

Type: Tug. MMSI: 367002070.

Date/timePositionNaut miles runAvg speedWind from/ knotsBaromVisibWave heightAir tempDewpointWater temp
2018-Feb-21 00:14N 29°42' W 095°03'0 0.5
2018-Feb-20 23:42N 29°42' W 095°03'0 0.5
2018-Feb-20 23:08N 29°42' W 095°03'1 5.9
2018-Feb-20 22:54N 29°42' W 095°01'3 7.0
2018-Feb-20 22:30N 29°41' W 094°58'3 5.3
2018-Feb-20 22:00N 29°41' W 094°55'2 3.6
2018-Feb-20 21:29N 29°43' W 094°56'2 0.8
2018-Feb-20 19:39N 29°44' W 094°55'1 4.1
2018-Feb-20 19:26N 29°44' W 094°56'2 3.6
2018-Feb-20 18:59N 29°42' W 094°56'2 3.3
2018-Feb-20 18:30N 29°41' W 094°56'3 5.5
2018-Feb-20 18:00N 29°41' W 094°59'4 6.8
2018-Feb-20 17:29N 29°42' W 095°03'0 0.0
2018-Feb-20 14:01N 29°42' W 095°03'0 0.0
2018-Feb-20 13:55N 29°42' W 095°03'0 0.0
2018-Feb-20 07:52N 29°42' W 095°03'0 0.0
2018-Feb-20 06:04N 29°42' W 095°03'0 0.0
2018-Feb-20 05:49N 29°42' W 095°03'0 0.0
2018-Feb-20 00:04N 29°42' W 095°03'0 0.0
2018-Feb-19 23:55N 29°42' W 095°03'0 0.0
2018-Feb-19 14:00N 29°42' W 095°03'0 0.0
2018-Feb-19 13:27N 29°42' W 095°03'0 0.0
2018-Feb-19 08:24N 29°42' W 095°03'0 0.0
2018-Feb-19 08:00N 29°42' W 095°03'0 0.0
2018-Feb-19 07:30N 29°42' W 095°03'0 0.0
2018-Feb-19 06:06N 29°42' W 095°03'0 0.0
2018-Feb-19 05:54N 29°42' W 095°03'0 0.0
2018-Feb-17 19:45N 29°43' W 095°03'1 3.8
2018-Feb-17 19:30N 29°42' W 095°02'2 4.6
2018-Feb-17 19:00N 29°41' W 094°59'3 5.5
2018-Feb-17 18:30N 29°39' W 094°58'3 6.2
2018-Feb-17 18:00N 29°36' W 094°57'3 6.2
2018-Feb-17 17:30N 29°33' W 094°55'26 1.1
2018-Feb-16 17:01N 29°34' W 094°25'0 6.3
2018-Feb-16 17:00N 29°34' W 094°25'2 4.5
2018-Feb-16 16:29N 29°36' W 094°23'3 6.1
2018-Feb-16 15:58N 29°37' W 094°20'3 5.6
2018-Feb-16 15:30N 29°39' W 094°17'3 6.0
2018-Feb-16 14:58N 29°40' W 094°14'2 3.5
2018-Feb-16 14:30N 29°41' W 094°12'1 2.6
2018-Feb-16 14:00N 29°41' W 094°11'2 5.0
2018-Feb-16 13:30N 29°42' W 094°08'3 5.2
2018-Feb-16 13:00N 29°44' W 094°06'2 5.0
2018-Feb-16 12:30N 29°45' W 094°04'1 1.1
2018-Feb-16 11:58N 29°46' W 094°03'0 0.0
2018-Feb-16 11:28N 29°46' W 094°03'0 0.0
2018-Feb-16 10:58N 29°46' W 094°03'0 0.0
2018-Feb-16 10:28N 29°46' W 094°03'0 0.0
2018-Feb-16 09:58N 29°46' W 094°03'0 0.0
2018-Feb-16 09:28N 29°46' W 094°03'0 0.0
2018-Feb-16 08:58N 29°46' W 094°03'0 0.0
2018-Feb-16 08:28N 29°46' W 094°03'0 0.0
2018-Feb-16 07:55N 29°46' W 094°03'0 0.0
2018-Feb-16 07:28N 29°46' W 094°03'0 0.0
2018-Feb-16 06:58N 29°46' W 094°03'0 0.0
2018-Feb-16 06:28N 29°46' W 094°03'0 0.0
2018-Feb-16 05:58N 29°46' W 094°03'0 0.0
2018-Feb-16 05:28N 29°46' W 094°03'0 0.0
2018-Feb-16 04:58N 29°46' W 094°03'0 0.0
2018-Feb-16 04:28N 29°46' W 094°03'0 0.0
2018-Feb-16 03:58N 29°46' W 094°03'0 0.0
2018-Feb-16 03:28N 29°46' W 094°03'0 0.0
2018-Feb-16 02:58N 29°46' W 094°03'0 0.0
2018-Feb-16 02:28N 29°46' W 094°03'0 0.0
2018-Feb-16 01:46N 29°46' W 094°03'0 0.0
2018-Feb-16 01:28N 29°46' W 094°03'0 0.0
2018-Feb-16 00:58N 29°46' W 094°03'1 1.8
2018-Feb-16 00:30N 29°46' W 094°02'3 6.5
2018-Feb-16 00:01N 29°49' W 093°60'3 5.5
2018-Feb-15 23:31N 29°50' W 093°57'3 5.2
2018-Feb-15 23:00N 29°53' W 093°56'3 6.0
2018-Feb-15 22:30N 29°55' W 093°53'3 6.2
2018-Feb-15 22:00N 29°57' W 093°52'3 5.8
2018-Feb-15 21:30N 29°59' W 093°49'3 6.7
2018-Feb-15 21:00N 30°01' W 093°45'3 6.2
2018-Feb-15 20:30N 30°03' W 093°43'4 6.1
2018-Feb-15 19:54N 30°04' W 093°39'2 6.1
2018-Feb-15 19:29N 30°04' W 093°36'3 5.4
2018-Feb-15 19:00N 30°04' W 093°33'3 5.5
2018-Feb-15 18:30N 30°04' W 093°30'3 5.3
2018-Feb-15 18:00N 30°04' W 093°27'2 4.0
2018-Feb-15 17:31N 30°04' W 093°25'2 4.5
2018-Feb-15 17:01N 30°04' W 093°22'2 3.8
2018-Feb-15 16:31N 30°05' W 093°20'2 4.0
2018-Feb-15 16:00N 30°06' W 093°18'0 0.3
2018-Feb-15 15:30N 30°06' W 093°18'0 0.0
2018-Feb-15 15:00N 30°06' W 093°18'0 0.0
2018-Feb-15 14:30N 30°06' W 093°18'0 0.0
2018-Feb-15 14:00N 30°06' W 093°18'0 0.0
2018-Feb-15 13:30N 30°06' W 093°18'0 0.0
2018-Feb-15 13:00N 30°06' W 093°18'0 0.0
2018-Feb-15 12:30N 30°06' W 093°18'0 0.0
2018-Feb-15 12:00N 30°06' W 093°18'0 0.0
2018-Feb-15 11:30N 30°06' W 093°18'0 0.0
2018-Feb-15 11:00N 30°06' W 093°18'0 0.0
2018-Feb-15 10:30N 30°06' W 093°18'0 0.0
2018-Feb-15 10:00N 30°06' W 093°18'0 0.0
2018-Feb-15 09:30N 30°06' W 093°18'0 0.0
2018-Feb-15 09:00N 30°06' W 093°18'0 0.0
2018-Feb-15 08:30N 30°06' W 093°18'0 0.0
2018-Feb-15 08:00N 30°06' W 093°18'0 0.0
2018-Feb-15 07:30N 30°06' W 093°18'0 0.0
2018-Feb-15 07:00N 30°06' W 093°18'0 0.0
2018-Feb-15 06:21N 30°06' W 093°18'0 0.0
2018-Feb-15 06:00N 30°06' W 093°18'0 0.0
2018-Feb-15 05:30N 30°06' W 093°18'0 0.0
2018-Feb-15 05:00N 30°06' W 093°18'0 0.0
2018-Feb-15 04:30N 30°06' W 093°18'0 0.0
2018-Feb-15 04:00N 30°06' W 093°18'0 0.0
2018-Feb-15 03:30N 30°06' W 093°18'0 0.0
2018-Feb-15 02:57N 30°06' W 093°18'0 0.0
2018-Feb-15 02:18N 30°06' W 093°18'0 0.0
2018-Feb-15 02:00N 30°06' W 093°18'0 0.0
2018-Feb-15 01:30N 30°06' W 093°18'1 1.6
2018-Feb-15 01:00N 30°05' W 093°18'1 1.7
2018-Feb-15 00:30N 30°05' W 093°17'0 0.1
2018-Feb-15 00:00N 30°05' W 093°17'0 0.0
2018-Feb-14 23:27N 30°05' W 093°17'0 0.0
2018-Feb-14 23:00N 30°05' W 093°17'0 0.8
2018-Feb-14 22:31N 30°04' W 093°16'2 4.6
2018-Feb-14 22:01N 30°02' W 093°15'2 5.0
2018-Feb-14 21:30N 30°00' W 093°14'2 4.2
2018-Feb-14 21:01N 29°59' W 093°12'3 6.1
2018-Feb-14 20:30N 29°56' W 093°10'11 5.7
2018-Feb-14 18:39N 29°56' W 092°58'32 2.8
2018-Feb-14 07:13N 29°51' W 092°22'2 5.1
2018-Feb-14 06:49N 29°50' W 092°19'1 3.3
2018-Feb-14 06:30N 29°50' W 092°18'2 3.1
2018-Feb-14 06:01N 29°49' W 092°17'3 5.4
2018-Feb-14 05:30N 29°48' W 092°14'2 3.6
2018-Feb-14 04:59N 29°47' W 092°12'2 3.8
2018-Feb-14 04:30N 29°47' W 092°10'  

Dump ship's entire track history